sensor_id;sensor_type;location;lat;lon;timestamp;pressure;altitude;pressure_sealevel;temperature;humidity
58471;BME280;44258;51.288;12.068;2023-09-30T00:00:21;101084.81;;;16.95;73.10
58471;BME280;44258;51.288;12.068;2023-09-30T00:02:47;101082.31;;;16.92;73.21
58471;BME280;44258;51.288;12.068;2023-09-30T00:05:16;101087.41;;;17.09;72.63
58471;BME280;44258;51.288;12.068;2023-09-30T00:07:45;101095.56;;;16.84;74.03
58471;BME280;44258;51.288;12.068;2023-09-30T00:10:11;101098.06;;;16.87;74.60
58471;BME280;44258;51.288;12.068;2023-09-30T00:12:38;101105.91;;;17.30;72.59
58471;BME280;44258;51.288;12.068;2023-09-30T00:15:05;101117.09;;;17.38;72.67
58471;BME280;44258;51.288;12.068;2023-09-30T00:17:33;101110.47;;;17.29;73.75
58471;BME280;44258;51.288;12.068;2023-09-30T00:20:00;101104.59;;;16.97;75.03
58471;BME280;44258;51.288;12.068;2023-09-30T00:22:30;101116.00;;;17.28;73.76
58471;BME280;44258;51.288;12.068;2023-09-30T00:24:58;101122.06;;;17.44;72.97
58471;BME280;44258;51.288;12.068;2023-09-30T00:27:24;101117.00;;;17.27;73.63
58471;BME280;44258;51.288;12.068;2023-09-30T00:29:51;101120.88;;;16.84;75.48
58471;BME280;44258;51.288;12.068;2023-09-30T00:32:17;101126.47;;;17.21;73.60
58471;BME280;44258;51.288;12.068;2023-09-30T00:34:44;101129.22;;;16.81;73.32
58471;BME280;44258;51.288;12.068;2023-09-30T00:37:11;101134.28;;;16.20;75.22
58471;BME280;44258;51.288;12.068;2023-09-30T00:39:43;101131.66;;;16.33;74.94
58471;BME280;44258;51.288;12.068;2023-09-30T00:42:10;101130.97;;;16.29;74.02
58471;BME280;44258;51.288;12.068;2023-09-30T00:44:37;101130.56;;;16.36;73.37
58471;BME280;44258;51.288;12.068;2023-09-30T00:47:04;101135.34;;;16.45;72.39
58471;BME280;44258;51.288;12.068;2023-09-30T00:49:31;101137.31;;;16.43;71.49
58471;BME280;44258;51.288;12.068;2023-09-30T00:51:59;101137.78;;;16.49;70.54
58471;BME280;44258;51.288;12.068;2023-09-30T00:54:27;101149.06;;;16.43;70.69
58471;BME280;44258;51.288;12.068;2023-09-30T00:56:56;101149.19;;;16.27;71.37
58471;BME280;44258;51.288;12.068;2023-09-30T00:59:25;101148.59;;;16.22;71.17
58471;BME280;44258;51.288;12.068;2023-09-30T01:01:52;101154.44;;;16.16;71.28
58471;BME280;44258;51.288;12.068;2023-09-30T01:04:20;101162.22;;;16.08;71.86
58471;BME280;44258;51.288;12.068;2023-09-30T01:06:48;101171.03;;;16.11;71.88
58471;BME280;44258;51.288;12.068;2023-09-30T01:09:15;101164.78;;;16.24;71.59
58471;BME280;44258;51.288;12.068;2023-09-30T01:11:45;101166.69;;;16.09;72.84
58471;BME280;44258;51.288;12.068;2023-09-30T01:14:32;101168.78;;;16.18;72.57
58471;BME280;44258;51.288;12.068;2023-09-30T01:17:00;101169.53;;;16.20;72.81
58471;BME280;44258;51.288;12.068;2023-09-30T01:19:27;101177.91;;;16.17;73.03
58471;BME280;44258;51.288;12.068;2023-09-30T01:21:56;101185.88;;;16.47;72.14
58471;BME280;44258;51.288;12.068;2023-09-30T01:24:25;101194.19;;;16.31;73.02
58471;BME280;44258;51.288;12.068;2023-09-30T01:26:51;101196.84;;;16.04;74.29
58471;BME280;44258;51.288;12.068;2023-09-30T01:29:18;101199.34;;;16.07;73.96
58471;BME280;44258;51.288;12.068;2023-09-30T01:31:45;101199.03;;;16.12;73.82
58471;BME280;44258;51.288;12.068;2023-09-30T01:34:13;101194.75;;;15.66;75.79
58471;BME280;44258;51.288;12.068;2023-09-30T01:36:40;101190.78;;;15.86;74.80
58471;BME280;44258;51.288;12.068;2023-09-30T01:39:08;101194.13;;;16.04;74.09
58471;BME280;44258;51.288;12.068;2023-09-30T01:41:36;101196.09;;;15.88;74.54
58471;BME280;44258;51.288;12.068;2023-09-30T01:44:02;101205.47;;;15.97;73.81
58471;BME280;44258;51.288;12.068;2023-09-30T01:46:29;101210.28;;;16.06;73.48
58471;BME280;44258;51.288;12.068;2023-09-30T01:48:56;101215.94;;;15.88;73.94
58471;BME280;44258;51.288;12.068;2023-09-30T01:51:22;101218.47;;;15.77;74.44
58471;BME280;44258;51.288;12.068;2023-09-30T01:53:49;101220.72;;;15.70;74.86
58471;BME280;44258;51.288;12.068;2023-09-30T01:56:17;101216.84;;;15.46;75.78
58471;BME280;44258;51.288;12.068;2023-09-30T01:58:44;101226.22;;;15.54;75.56
58471;BME280;44258;51.288;12.068;2023-09-30T02:01:10;101224.88;;;15.33;76.47
58471;BME280;44258;51.288;12.068;2023-09-30T02:03:37;101229.78;;;15.41;76.13
58471;BME280;44258;51.288;12.068;2023-09-30T02:06:04;101222.72;;;15.38;76.07
58471;BME280;44258;51.288;12.068;2023-09-30T02:08:30;101218.69;;;15.74;74.46
58471;BME280;44258;51.288;12.068;2023-09-30T02:11:01;101233.66;;;15.65;74.78
58471;BME280;44258;51.288;12.068;2023-09-30T02:13:32;101228.84;;;15.70;74.41
58471;BME280;44258;51.288;12.068;2023-09-30T02:15:59;101231.06;;;15.78;73.58
58471;BME280;44258;51.288;12.068;2023-09-30T02:18:26;101238.91;;;15.68;74.17
58471;BME280;44258;51.288;12.068;2023-09-30T02:20:53;101240.56;;;15.71;73.63
58471;BME280;44258;51.288;12.068;2023-09-30T02:23:20;101245.28;;;15.82;72.82
58471;BME280;44258;51.288;12.068;2023-09-30T02:25:48;101252.38;;;15.70;73.28
58471;BME280;44258;51.288;12.068;2023-09-30T02:28:14;101253.81;;;15.61;73.85
58471;BME280;44258;51.288;12.068;2023-09-30T02:30:42;101260.69;;;15.81;72.69
58471;BME280;44258;51.288;12.068;2023-09-30T02:33:09;101257.50;;;15.89;72.35
58471;BME280;44258;51.288;12.068;2023-09-30T02:35:35;101253.53;;;15.94;72.16
58471;BME280;44258;51.288;12.068;2023-09-30T02:38:04;101254.41;;;15.95;71.78
58471;BME280;44258;51.288;12.068;2023-09-30T02:40:33;101257.13;;;15.66;72.58
58471;BME280;44258;51.288;12.068;2023-09-30T02:43:00;101266.13;;;15.67;72.24
58471;BME280;44258;51.288;12.068;2023-09-30T02:45:26;101273.31;;;15.68;72.31
58471;BME280;44258;51.288;12.068;2023-09-30T02:47:54;101281.53;;;15.66;72.10
58471;BME280;44258;51.288;12.068;2023-09-30T02:50:21;101284.50;;;15.47;72.65
58471;BME280;44258;51.288;12.068;2023-09-30T02:52:48;101284.63;;;15.60;71.75
58471;BME280;44258;51.288;12.068;2023-09-30T02:55:15;101292.25;;;15.39;72.38
58471;BME280;44258;51.288;12.068;2023-09-30T02:57:42;101293.31;;;15.51;72.42
58471;BME280;44258;51.288;12.068;2023-09-30T03:00:09;101300.03;;;15.60;71.71
58471;BME280;44258;51.288;12.068;2023-09-30T03:02:46;101304.16;;;15.65;71.72
58471;BME280;44258;51.288;12.068;2023-09-30T03:05:14;101305.22;;;15.63;71.50
58471;BME280;44258;51.288;12.068;2023-09-30T03:07:41;101308.34;;;15.71;71.25
58471;BME280;44258;51.288;12.068;2023-09-30T03:10:09;101309.41;;;15.54;71.32
58471;BME280;44258;51.288;12.068;2023-09-30T03:12:36;101319.63;;;15.49;71.37
58471;BME280;44258;51.288;12.068;2023-09-30T03:15:03;101308.00;;;15.47;71.36
58471;BME280;44258;51.288;12.068;2023-09-30T03:17:30;101303.38;;;15.49;71.22
58471;BME280;44258;51.288;12.068;2023-09-30T03:19:57;101303.75;;;15.43;71.07
58471;BME280;44258;51.288;12.068;2023-09-30T03:22:25;101299.78;;;15.34;71.30
58471;BME280;44258;51.288;12.068;2023-09-30T03:24:52;101309.09;;;15.44;70.87
58471;BME280;44258;51.288;12.068;2023-09-30T03:27:19;101309.53;;;15.37;70.81
58471;BME280;44258;51.288;12.068;2023-09-30T03:29:46;101304.13;;;15.37;70.95
58471;BME280;44258;51.288;12.068;2023-09-30T03:32:15;101316.72;;;15.38;70.52
58471;BME280;44258;51.288;12.068;2023-09-30T03:34:42;101319.53;;;15.36;70.72
58471;BME280;44258;51.288;12.068;2023-09-30T03:37:11;101315.09;;;15.35;70.47
58471;BME280;44258;51.288;12.068;2023-09-30T03:39:39;101327.75;;;15.19;71.41
58471;BME280;44258;51.288;12.068;2023-09-30T03:42:06;101318.66;;;15.36;71.15
58471;BME280;44258;51.288;12.068;2023-09-30T03:44:36;101325.53;;;15.41;70.69
58471;BME280;44258;51.288;12.068;2023-09-30T03:47:04;101321.50;;;15.32;70.89
58471;BME280;44258;51.288;12.068;2023-09-30T03:49:30;101315.56;;;15.42;71.05
58471;BME280;44258;51.288;12.068;2023-09-30T03:51:57;101318.06;;;15.45;70.75
58471;BME280;44258;51.288;12.068;2023-09-30T03:54:23;101324.97;;;15.50;70.19
58471;BME280;44258;51.288;12.068;2023-09-30T03:56:54;101328.53;;;15.51;69.82
58471;BME280;44258;51.288;12.068;2023-09-30T03:59:20;101334.38;;;15.59;69.31
58471;BME280;44258;51.288;12.068;2023-09-30T04:01:48;101331.56;;;15.61;69.37
58471;BME280;44258;51.288;12.068;2023-09-30T04:04:14;101343.81;;;15.68;69.22
58471;BME280;44258;51.288;12.068;2023-09-30T04:06:41;101339.81;;;15.73;68.73
58471;BME280;44258;51.288;12.068;2023-09-30T04:09:07;101338.78;;;15.76;68.62
58471;BME280;44258;51.288;12.068;2023-09-30T04:11:36;101334.59;;;15.70;69.11
58471;BME280;44258;51.288;12.068;2023-09-30T04:14:05;101327.53;;;15.68;69.15
58471;BME280;44258;51.288;12.068;2023-09-30T04:16:33;101337.88;;;15.75;68.70
58471;BME280;44258;51.288;12.068;2023-09-30T04:19:00;101334.31;;;15.75;68.64
58471;BME280;44258;51.288;12.068;2023-09-30T04:21:28;101334.78;;;15.67;68.99
58471;BME280;44258;51.288;12.068;2023-09-30T04:23:59;101328.56;;;15.65;68.71
58471;BME280;44258;51.288;12.068;2023-09-30T04:26:26;101330.72;;;15.60;68.94
58471;BME280;44258;51.288;12.068;2023-09-30T04:28:55;101336.22;;;15.59;69.09
58471;BME280;44258;51.288;12.068;2023-09-30T04:31:23;101340.84;;;15.57;69.39
58471;BME280;44258;51.288;12.068;2023-09-30T04:33:50;101339.78;;;15.59;69.21
58471;BME280;44258;51.288;12.068;2023-09-30T04:36:18;101349.97;;;15.56;69.16
58471;BME280;44258;51.288;12.068;2023-09-30T04:38:45;101339.97;;;15.42;69.88
58471;BME280;44258;51.288;12.068;2023-09-30T04:41:12;101341.91;;;15.40;69.89
58471;BME280;44258;51.288;12.068;2023-09-30T04:43:41;101351.22;;;15.50;69.23
58471;BME280;44258;51.288;12.068;2023-09-30T04:46:08;101344.56;;;15.56;68.81
58471;BME280;44258;51.288;12.068;2023-09-30T04:48:39;101342.78;;;15.54;68.65
58471;BME280;44258;51.288;12.068;2023-09-30T04:51:08;101335.31;;;15.44;68.99
58471;BME280;44258;51.288;12.068;2023-09-30T04:53:36;101336.88;;;15.48;68.38
58471;BME280;44258;51.288;12.068;2023-09-30T04:56:03;101341.53;;;15.46;68.44
58471;BME280;44258;51.288;12.068;2023-09-30T04:58:30;101350.53;;;15.46;67.95
58471;BME280;44258;51.288;12.068;2023-09-30T05:00:57;101349.94;;;15.41;68.35
58471;BME280;44258;51.288;12.068;2023-09-30T05:03:24;101351.88;;;15.39;68.14
58471;BME280;44258;51.288;12.068;2023-09-30T05:05:52;101360.25;;;15.34;68.12
58471;BME280;44258;51.288;12.068;2023-09-30T05:08:22;101366.78;;;15.30;68.25
58471;BME280;44258;51.288;12.068;2023-09-30T05:10:48;101369.78;;;15.26;68.42
58471;BME280;44258;51.288;12.068;2023-09-30T05:13:15;101368.13;;;15.23;68.36
58471;BME280;44258;51.288;12.068;2023-09-30T05:15:42;101380.81;;;15.23;68.30
58471;BME280;44258;51.288;12.068;2023-09-30T05:18:09;101395.03;;;15.26;68.02
58471;BME280;44258;51.288;12.068;2023-09-30T05:20:36;101397.31;;;15.18;67.60
58471;BME280;44258;51.288;12.068;2023-09-30T05:23:05;101392.47;;;15.09;67.62
58471;BME280;44258;51.288;12.068;2023-09-30T05:25:33;101388.25;;;15.03;68.14
58471;BME280;44258;51.288;12.068;2023-09-30T05:27:59;101376.94;;;14.81;68.73
58471;BME280;44258;51.288;12.068;2023-09-30T05:30:26;101389.75;;;14.93;68.50
58471;BME280;44258;51.288;12.068;2023-09-30T05:32:53;101395.78;;;14.98;68.29
58471;BME280;44258;51.288;12.068;2023-09-30T05:35:19;101401.09;;;15.00;68.24
58471;BME280;44258;51.288;12.068;2023-09-30T05:37:47;101405.03;;;14.94;68.56
58471;BME280;44258;51.288;12.068;2023-09-30T05:40:19;101417.63;;;14.95;68.16
58471;BME280;44258;51.288;12.068;2023-09-30T05:42:51;101418.13;;;14.86;67.47
58471;BME280;44258;51.288;12.068;2023-09-30T05:45:18;101430.38;;;14.77;67.82
58471;BME280;44258;51.288;12.068;2023-09-30T05:47:45;101437.91;;;14.72;67.80
58471;BME280;44258;51.288;12.068;2023-09-30T05:50:11;101423.72;;;14.67;67.65
58471;BME280;44258;51.288;12.068;2023-09-30T05:52:41;101432.44;;;14.56;67.75
58471;BME280;44258;51.288;12.068;2023-09-30T05:55:08;101424.50;;;14.53;68.01
58471;BME280;44258;51.288;12.068;2023-09-30T05:57:36;101435.88;;;14.60;67.97
58471;BME280;44258;51.288;12.068;2023-09-30T06:00:05;101438.41;;;14.63;67.78
58471;BME280;44258;51.288;12.068;2023-09-30T06:02:46;101445.66;;;14.62;67.61
58471;BME280;44258;51.288;12.068;2023-09-30T06:05:14;101438.47;;;14.61;67.75
58471;BME280;44258;51.288;12.068;2023-09-30T06:07:44;101437.69;;;14.59;67.95
58471;BME280;44258;51.288;12.068;2023-09-30T06:10:11;101433.06;;;14.61;68.13
58471;BME280;44258;51.288;12.068;2023-09-30T06:12:39;101429.22;;;14.65;68.13
58471;BME280;44258;51.288;12.068;2023-09-30T06:15:07;101428.63;;;14.76;67.99
58471;BME280;44258;51.288;12.068;2023-09-30T06:17:34;101424.59;;;14.83;67.90
58471;BME280;44258;51.288;12.068;2023-09-30T06:20:04;101429.53;;;14.92;67.91
58471;BME280;44258;51.288;12.068;2023-09-30T06:22:35;101423.47;;;15.03;67.85
58471;BME280;44258;51.288;12.068;2023-09-30T06:25:02;101429.31;;;15.11;67.93
58471;BME280;44258;51.288;12.068;2023-09-30T06:27:29;101436.75;;;15.24;67.65
58471;BME280;44258;51.288;12.068;2023-09-30T06:30:01;101444.25;;;15.34;67.75
58471;BME280;44258;51.288;12.068;2023-09-30T06:32:28;101436.31;;;15.47;67.07
58471;BME280;44258;51.288;12.068;2023-09-30T06:34:55;101428.06;;;15.49;66.88
58471;BME280;44258;51.288;12.068;2023-09-30T06:37:26;101434.78;;;15.58;66.83
58471;BME280;44258;51.288;12.068;2023-09-30T06:39:55;101442.03;;;15.57;66.86
58471;BME280;44258;51.288;12.068;2023-09-30T06:42:24;101454.00;;;15.69;66.81
58471;BME280;44258;51.288;12.068;2023-09-30T06:48:16;101453.56;;;15.91;66.13
58471;BME280;44258;51.288;12.068;2023-09-30T06:50:44;101459.78;;;15.93;66.22
58471;BME280;44258;51.288;12.068;2023-09-30T06:53:11;101461.72;;;15.91;66.08
58471;BME280;44258;51.288;12.068;2023-09-30T06:55:38;101466.59;;;16.00;66.21
58471;BME280;44258;51.288;12.068;2023-09-30T06:58:06;101453.91;;;16.01;66.21
58471;BME280;44258;51.288;12.068;2023-09-30T07:00:36;101449.25;;;16.03;66.30
58471;BME280;44258;51.288;12.068;2023-09-30T07:03:04;101450.88;;;16.05;66.18
58471;BME280;44258;51.288;12.068;2023-09-30T07:05:32;101450.59;;;16.10;66.07
58471;BME280;44258;51.288;12.068;2023-09-30T07:07:59;101443.63;;;16.06;66.15
58471;BME280;44258;51.288;12.068;2023-09-30T07:10:26;101456.94;;;16.10;66.26
58471;BME280;44258;51.288;12.068;2023-09-30T07:12:52;101454.88;;;16.28;66.25
58471;BME280;44258;51.288;12.068;2023-09-30T07:15:19;101454.75;;;16.46;65.80
58471;BME280;44258;51.288;12.068;2023-09-30T07:17:45;101460.56;;;16.54;65.42
58471;BME280;44258;51.288;12.068;2023-09-30T07:20:14;101460.88;;;16.49;65.60
58471;BME280;44258;51.288;12.068;2023-09-30T07:22:42;101477.53;;;16.58;65.46
58471;BME280;44258;51.288;12.068;2023-09-30T07:25:10;101481.03;;;16.60;65.30
58471;BME280;44258;51.288;12.068;2023-09-30T07:27:36;101485.31;;;16.64;65.33
58471;BME280;44258;51.288;12.068;2023-09-30T07:30:04;101481.03;;;16.74;65.47
58471;BME280;44258;51.288;12.068;2023-09-30T07:32:32;101485.06;;;16.81;65.03
58471;BME280;44258;51.288;12.068;2023-09-30T07:34:58;101488.88;;;16.79;65.24
58471;BME280;44258;51.288;12.068;2023-09-30T07:37:25;101493.72;;;16.88;64.99
58471;BME280;44258;51.288;12.068;2023-09-30T07:39:53;101491.00;;;17.02;65.03
58471;BME280;44258;51.288;12.068;2023-09-30T07:42:19;101490.88;;;17.04;64.31
58471;BME280;44258;51.288;12.068;2023-09-30T07:44:48;101498.47;;;16.99;63.94
58471;BME280;44258;51.288;12.068;2023-09-30T07:47:15;101503.59;;;16.89;63.46
58471;BME280;44258;51.288;12.068;2023-09-30T07:49:42;101494.91;;;16.84;63.66
58471;BME280;44258;51.288;12.068;2023-09-30T07:52:08;101504.59;;;16.88;63.71
58471;BME280;44258;51.288;12.068;2023-09-30T07:54:36;101503.03;;;16.98;63.69
58471;BME280;44258;51.288;12.068;2023-09-30T07:57:04;101507.47;;;17.13;63.82
58471;BME280;44258;51.288;12.068;2023-09-30T07:59:31;101513.13;;;17.25;63.46
58471;BME280;44258;51.288;12.068;2023-09-30T08:01:58;101515.06;;;17.50;63.45
58471;BME280;44258;51.288;12.068;2023-09-30T08:04:25;101517.00;;;17.75;63.10
58471;BME280;44258;51.288;12.068;2023-09-30T08:06:51;101531.03;;;17.96;62.05
58471;BME280;44258;51.288;12.068;2023-09-30T08:09:20;101532.84;;;18.23;62.48
58471;BME280;44258;51.288;12.068;2023-09-30T08:11:49;101523.38;;;18.28;60.41
58471;BME280;44258;51.288;12.068;2023-09-30T08:14:17;101519.91;;;18.39;61.36
58471;BME280;44258;51.288;12.068;2023-09-30T08:16:43;101518.06;;;18.65;60.48
58471;BME280;44258;51.288;12.068;2023-09-30T08:19:10;101519.59;;;18.69;59.83
58471;BME280;44258;51.288;12.068;2023-09-30T08:21:36;101523.41;;;18.92;59.23
58471;BME280;44258;51.288;12.068;2023-09-30T08:24:03;101518.91;;;19.04;59.14
58471;BME280;44258;51.288;12.068;2023-09-30T08:26:30;101517.00;;;19.30;58.93
58471;BME280;44258;51.288;12.068;2023-09-30T08:28:58;101522.44;;;19.30;57.40
58471;BME280;44258;51.288;12.068;2023-09-30T08:31:26;101519.63;;;19.32;57.69
58471;BME280;44258;51.288;12.068;2023-09-30T08:33:53;101510.72;;;19.41;58.03
58471;BME280;44258;51.288;12.068;2023-09-30T08:36:20;101516.66;;;19.59;58.39
58471;BME280;44258;51.288;12.068;2023-09-30T08:38:47;101524.03;;;19.70;57.02
58471;BME280;44258;51.288;12.068;2023-09-30T08:41:24;101524.50;;;19.64;56.44
58471;BME280;44258;51.288;12.068;2023-09-30T08:44:01;101531.03;;;19.74;54.99
58471;BME280;44258;51.288;12.068;2023-09-30T08:46:33;101525.78;;;19.71;54.55
58471;BME280;44258;51.288;12.068;2023-09-30T08:49:01;101521.88;;;19.38;54.00
58471;BME280;44258;51.288;12.068;2023-09-30T08:51:32;101522.69;;;19.51;55.13
58471;BME280;44258;51.288;12.068;2023-09-30T08:53:59;101526.19;;;19.53;54.71
58471;BME280;44258;51.288;12.068;2023-09-30T08:56:28;101528.34;;;19.61;55.60
58471;BME280;44258;51.288;12.068;2023-09-30T08:58:57;101528.13;;;19.88;55.36
58471;BME280;44258;51.288;12.068;2023-09-30T09:01:24;101525.56;;;19.98;54.76
58471;BME280;44258;51.288;12.068;2023-09-30T09:03:52;101536.19;;;19.90;54.32
58471;BME280;44258;51.288;12.068;2023-09-30T09:06:20;101533.81;;;19.85;54.15
58471;BME280;44258;51.288;12.068;2023-09-30T09:08:47;101532.06;;;19.84;54.25
58471;BME280;44258;51.288;12.068;2023-09-30T09:11:14;101532.03;;;20.08;55.13
58471;BME280;44258;51.288;12.068;2023-09-30T09:13:47;101534.78;;;19.84;54.55
58471;BME280;44258;51.288;12.068;2023-09-30T09:16:15;101522.94;;;19.48;54.12
58471;BME280;44258;51.288;12.068;2023-09-30T09:18:43;101525.16;;;18.93;55.04
58471;BME280;44258;51.288;12.068;2023-09-30T09:21:13;101521.88;;;19.38;55.44
58471;BME280;44258;51.288;12.068;2023-09-30T09:23:45;101523.28;;;19.68;54.98
58471;BME280;44258;51.288;12.068;2023-09-30T09:26:12;101533.53;;;19.64;54.65
58471;BME280;44258;51.288;12.068;2023-09-30T09:28:39;101536.28;;;19.40;54.54
58471;BME280;44258;51.288;12.068;2023-09-30T09:31:20;101529.41;;;19.34;54.38
58471;BME280;44258;51.288;12.068;2023-09-30T09:33:48;101526.34;;;19.63;54.96
58471;BME280;44258;51.288;12.068;2023-09-30T09:36:17;101524.13;;;19.68;53.73
58471;BME280;44258;51.288;12.068;2023-09-30T09:38:46;101524.97;;;19.58;52.24
58471;BME280;44258;51.288;12.068;2023-09-30T09:41:14;101527.75;;;19.69;52.29
58471;BME280;44258;51.288;12.068;2023-09-30T09:43:42;101526.31;;;19.76;52.37
58471;BME280;44258;51.288;12.068;2023-09-30T09:46:10;101521.25;;;19.59;53.50
58471;BME280;44258;51.288;12.068;2023-09-30T09:48:39;101523.69;;;19.74;52.65
58471;BME280;44258;51.288;12.068;2023-09-30T09:51:06;101525.81;;;19.95;53.04
58471;BME280;44258;51.288;12.068;2023-09-30T09:53:36;101525.06;;;20.04;51.95
58471;BME280;44258;51.288;12.068;2023-09-30T09:56:04;101521.59;;;20.02;51.96
58471;BME280;44258;51.288;12.068;2023-09-30T09:58:33;101517.53;;;20.08;51.65
58471;BME280;44258;51.288;12.068;2023-09-30T10:01:01;101531.47;;;20.27;52.38
58471;BME280;44258;51.288;12.068;2023-09-30T10:03:28;101532.47;;;20.26;52.23
58471;BME280;44258;51.288;12.068;2023-09-30T10:05:56;101531.34;;;20.29;51.25
58471;BME280;44258;51.288;12.068;2023-09-30T10:08:30;101528.44;;;20.08;50.57
58471;BME280;44258;51.288;12.068;2023-09-30T10:11:00;101537.81;;;19.92;51.77
58471;BME280;44258;51.288;12.068;2023-09-30T10:13:50;101546.09;;;19.67;52.01
58471;BME280;44258;51.288;12.068;2023-09-30T10:16:46;101542.47;;;19.79;50.90
58471;BME280;44258;51.288;12.068;2023-09-30T10:19:20;101543.63;;;19.88;50.60
58471;BME280;44258;51.288;12.068;2023-09-30T10:22:22;101533.66;;;19.76;50.10
58471;BME280;44258;51.288;12.068;2023-09-30T10:24:51;101536.50;;;19.74;50.55
58471;BME280;44258;51.288;12.068;2023-09-30T10:27:36;101540.81;;;19.52;49.68
58471;BME280;44258;51.288;12.068;2023-09-30T10:30:10;101536.38;;;19.76;50.77
58471;BME280;44258;51.288;12.068;2023-09-30T10:33:09;101538.69;;;19.69;49.90
58471;BME280;44258;51.288;12.068;2023-09-30T10:35:46;101540.78;;;19.89;49.93
58471;BME280;44258;51.288;12.068;2023-09-30T10:38:39;101533.06;;;19.83;49.50
58471;BME280;44258;51.288;12.068;2023-09-30T10:44:36;101527.75;;;19.69;48.10
58471;BME280;44258;51.288;12.068;2023-09-30T10:47:34;101530.56;;;19.80;49.16
58471;BME280;44258;51.288;12.068;2023-09-30T10:50:03;101528.47;;;19.84;49.36
58471;BME280;44258;51.288;12.068;2023-09-30T10:52:31;101538.06;;;19.89;48.66
58471;BME280;44258;51.288;12.068;2023-09-30T10:55:02;101531.78;;;19.76;48.58
58471;BME280;44258;51.288;12.068;2023-09-30T10:57:30;101529.94;;;19.64;48.24
58471;BME280;44258;51.288;12.068;2023-09-30T11:00:11;101529.53;;;19.33;48.46
58471;BME280;44258;51.288;12.068;2023-09-30T11:02:49;101521.38;;;19.57;48.92
58471;BME280;44258;51.288;12.068;2023-09-30T11:05:17;101521.00;;;19.62;48.70
58471;BME280;44258;51.288;12.068;2023-09-30T11:07:45;101519.31;;;19.72;47.97
58471;BME280;44258;51.288;12.068;2023-09-30T11:10:16;101516.22;;;19.89;48.42
58471;BME280;44258;51.288;12.068;2023-09-30T11:12:53;101516.88;;;19.93;47.93
58471;BME280;44258;51.288;12.068;2023-09-30T11:15:21;101524.63;;;19.86;47.85
58471;BME280;44258;51.288;12.068;2023-09-30T11:17:48;101517.66;;;19.82;47.99
58471;BME280;44258;51.288;12.068;2023-09-30T11:20:16;101515.69;;;19.84;48.34
58471;BME280;44258;51.288;12.068;2023-09-30T11:22:43;101508.72;;;19.80;49.26
58471;BME280;44258;51.288;12.068;2023-09-30T11:25:15;101514.34;;;19.66;50.18
58471;BME280;44258;51.288;12.068;2023-09-30T11:27:43;101497.63;;;19.94;49.48
58471;BME280;44258;51.288;12.068;2023-09-30T11:30:11;101501.81;;;19.87;49.06
58471;BME280;44258;51.288;12.068;2023-09-30T11:32:41;101488.56;;;19.94;48.69
58471;BME280;44258;51.288;12.068;2023-09-30T11:35:22;101493.63;;;19.87;47.71
58471;BME280;44258;51.288;12.068;2023-09-30T11:37:50;101497.91;;;19.79;46.96
58471;BME280;44258;51.288;12.068;2023-09-30T11:40:17;101504.91;;;19.83;47.69
58471;BME280;44258;51.288;12.068;2023-09-30T11:43:06;101498.69;;;20.16;47.64
58471;BME280;44258;51.288;12.068;2023-09-30T11:45:36;101499.44;;;19.83;47.80
58471;BME280;44258;51.288;12.068;2023-09-30T11:48:17;101498.09;;;20.24;47.71
58471;BME280;44258;51.288;12.068;2023-09-30T11:50:47;101497.00;;;20.49;47.61
58471;BME280;44258;51.288;12.068;2023-09-30T11:53:16;101496.97;;;20.38;47.53
58471;BME280;44258;51.288;12.068;2023-09-30T11:55:44;101483.56;;;20.34;47.68
58471;BME280;44258;51.288;12.068;2023-09-30T11:58:11;101479.59;;;19.68;47.07
58471;BME280;44258;51.288;12.068;2023-09-30T12:00:44;101488.66;;;19.92;47.62
58471;BME280;44258;51.288;12.068;2023-09-30T12:03:11;101475.03;;;19.92;46.53
58471;BME280;44258;51.288;12.068;2023-09-30T12:05:40;101478.09;;;19.64;47.93
58471;BME280;44258;51.288;12.068;2023-09-30T12:08:06;101465.47;;;19.87;46.24
58471;BME280;44258;51.288;12.068;2023-09-30T12:10:33;101467.34;;;19.98;45.76
58471;BME280;44258;51.288;12.068;2023-09-30T12:13:00;101471.00;;;20.09;46.35
58471;BME280;44258;51.288;12.068;2023-09-30T12:15:26;101471.38;;;20.16;46.83
58471;BME280;44258;51.288;12.068;2023-09-30T12:17:53;101467.50;;;20.07;46.66
58471;BME280;44258;51.288;12.068;2023-09-30T12:20:22;101455.59;;;20.08;46.92
58471;BME280;44258;51.288;12.068;2023-09-30T12:22:51;101460.19;;;20.08;45.77
58471;BME280;44258;51.288;12.068;2023-09-30T12:25:19;101454.06;;;19.93;46.39
58471;BME280;44258;51.288;12.068;2023-09-30T12:27:48;101455.16;;;19.90;46.79
58471;BME280;44258;51.288;12.068;2023-09-30T12:30:16;101456.47;;;19.49;46.60
58471;BME280;44258;51.288;12.068;2023-09-30T12:32:45;101450.94;;;19.62;46.57
58471;BME280;44258;51.288;12.068;2023-09-30T12:35:11;101449.00;;;20.00;46.21
58471;BME280;44258;51.288;12.068;2023-09-30T12:37:38;101442.78;;;20.09;46.70
58471;BME280;44258;51.288;12.068;2023-09-30T12:40:07;101448.28;;;20.20;46.95
58471;BME280;44258;51.288;12.068;2023-09-30T12:42:36;101445.56;;;20.31;45.03
58471;BME280;44258;51.288;12.068;2023-09-30T12:45:03;101443.94;;;20.29;45.11
58471;BME280;44258;51.288;12.068;2023-09-30T12:47:31;101437.44;;;19.61;45.76
58471;BME280;44258;51.288;12.068;2023-09-30T12:49:57;101447.69;;;19.57;45.81
58471;BME280;44258;51.288;12.068;2023-09-30T12:52:24;101447.88;;;19.91;46.04
58471;BME280;44258;51.288;12.068;2023-09-30T12:54:51;101439.13;;;19.50;45.71